Details for AirAsia at WMKP




Go Back


Latest METAR
Local Time

WMKP 211430Z VRB02KT 8000 FEW025 SCT140 BKN270 29/25 Q1008 NOSIG

21/02/2018, 22:57:00

Description
Results
AirAsia Logo
Number of Pilots based at WMKP
0 Pilots Based here
Number of AirAsia Flights Departed from WMKP
0 Flights Departed
Number of AirAsia Flights Arrived at WMKP
0 Flights Arrived
Number of AirAsia Schedules Departing from WMKP
30 Schedules
Number of AirAsia Schedules Arriving at WMKP
32 Schedules
Number of AirAsia Schedules Departing from WMKP availible today
25 Schedules Today
Number of AirAsia Schedules Arriving at WMKP availible today
25 Schedules Today
Average Landing Rate at WMKP
0 fpm
AirAsia Average Landing Rate at WMKP
0 fpm
Total Fuel Purchased at WMKP by AirAsia
0.00 kgs / 0.00 lbs

Pilots Based at WMKP


Pilot ID
Pilot Name
Pilot Rank
No. of Flights
No. of Flying Hours
There are no pilots assigned to this hub!   Will you be the first?
Content